createdAt,value
2022-10-29T00:02:01.274Z,6.60
2022-10-29T00:04:29.163Z,7.23
2022-10-29T00:06:58.528Z,6.20
2022-10-29T00:09:26.396Z,6.20
2022-10-29T00:11:54.208Z,6.97
2022-10-29T00:14:22.381Z,5.67
2022-10-29T00:16:50.292Z,6.50
2022-10-29T00:19:18.172Z,6.60
2022-10-29T00:21:46.108Z,6.83
2022-10-29T00:24:15.406Z,6.10
2022-10-29T00:26:43.426Z,6.87
2022-10-29T00:29:11.524Z,6.20
2022-10-29T00:31:39.412Z,6.80
2022-10-29T00:34:07.517Z,6.60
2022-10-29T00:36:35.517Z,7.43
2022-10-29T00:39:03.372Z,6.50
2022-10-29T00:41:32.572Z,6.60
2022-10-29T00:44:26.894Z,7.10
2022-10-29T00:47:02.626Z,6.47
2022-10-29T00:49:32.181Z,6.20
2022-10-29T00:52:02.397Z,6.17
2022-10-29T00:54:33.604Z,5.97
2022-10-29T00:57:08.966Z,5.87
2022-10-29T00:59:37.174Z,6.33
2022-10-29T01:02:05.234Z,6.13
2022-10-29T01:04:33.258Z,6.20
2022-10-29T01:07:01.431Z,5.73
2022-10-29T01:09:29.253Z,6.47
2022-10-29T01:12:11.287Z,6.40
2022-10-29T01:14:51.563Z,6.77
2022-10-29T01:17:28.721Z,6.83
2022-10-29T01:20:27.888Z,6.43
2022-10-29T01:23:12.587Z,6.63
2022-10-29T01:26:13.459Z,6.17
2022-10-29T01:29:00.505Z,6.43
2022-10-29T01:31:35.393Z,5.77
2022-10-29T01:34:08.223Z,5.77
2022-10-29T01:36:45.246Z,6.00
2022-10-29T01:39:21.432Z,6.17
2022-10-29T01:41:56.152Z,6.43
2022-10-29T01:44:34.220Z,5.70
2022-10-29T01:47:04.903Z,6.27
2022-10-29T01:49:39.054Z,6.40
2022-10-29T01:52:10.040Z,6.47
2022-10-29T01:54:42.261Z,6.50
2022-10-29T01:57:31.635Z,5.90
2022-10-29T02:00:03.006Z,5.60
2022-10-29T02:02:48.416Z,5.33
2022-10-29T02:05:24.986Z,6.57
2022-10-29T02:07:57.873Z,5.83
2022-10-29T02:10:33.762Z,5.57
2022-10-29T02:13:01.789Z,5.93
2022-10-29T02:15:34.723Z,6.07
2022-10-29T02:18:06.329Z,6.00
2022-10-29T02:20:34.865Z,7.03
2022-10-29T02:23:02.749Z,5.80
2022-10-29T02:25:30.642Z,6.73
2022-10-29T02:27:58.700Z,6.33
2022-10-29T02:30:26.711Z,6.57
2022-10-29T02:32:54.822Z,6.27
2022-10-29T02:35:24.765Z,6.50
2022-10-29T02:37:52.993Z,6.90
2022-10-29T02:40:20.842Z,6.07
2022-10-29T02:42:48.857Z,5.60
2022-10-29T02:45:16.870Z,6.60
2022-10-29T02:47:44.702Z,6.60
2022-10-29T02:50:12.601Z,6.17
2022-10-29T02:52:42.592Z,7.07
2022-10-29T02:55:10.823Z,5.97
2022-10-29T02:57:38.799Z,6.77
2022-10-29T03:00:07.652Z,7.20
2022-10-29T03:02:35.606Z,6.83
2022-10-29T03:05:04.011Z,6.57
2022-10-29T03:07:36.344Z,6.90
2022-10-29T03:10:06.269Z,6.90
2022-10-29T03:12:34.531Z,6.47
2022-10-29T03:15:02.401Z,6.40
2022-10-29T03:17:30.554Z,6.67
2022-10-29T03:19:58.447Z,6.40
2022-10-29T03:22:26.342Z,7.53
2022-10-29T03:24:54.414Z,7.43
2022-10-29T03:27:23.717Z,8.10
2022-10-29T03:29:51.628Z,7.60
2022-10-29T03:32:19.734Z,8.13
2022-10-29T03:34:47.623Z,7.80
2022-10-29T03:37:15.520Z,7.80
2022-10-29T03:39:43.456Z,7.83
2022-10-29T03:42:11.430Z,8.33
2022-10-29T03:44:40.676Z,8.27
2022-10-29T03:47:09.109Z,7.73
2022-10-29T03:49:37.067Z,7.47
2022-10-29T03:52:05.145Z,8.17
2022-10-29T03:54:33.252Z,7.90
2022-10-29T03:57:01.158Z,8.10
2022-10-29T03:59:29.072Z,8.03
2022-10-29T04:01:58.431Z,7.80
2022-10-29T04:04:26.367Z,8.00
2022-10-29T04:06:54.197Z,7.63
2022-10-29T04:09:22.051Z,7.40
2022-10-29T04:11:49.935Z,7.10
2022-10-29T04:14:18.063Z,7.43
2022-10-29T04:16:46.067Z,7.10
2022-10-29T04:19:15.510Z,7.57
2022-10-29T04:30:08.563Z,7.93
2022-10-29T04:32:36.549Z,7.40
2022-10-29T04:35:06.710Z,8.57
2022-10-29T04:37:34.715Z,7.83
2022-10-29T04:40:02.583Z,8.10
2022-10-29T04:42:30.520Z,8.07
2022-10-29T04:44:58.496Z,7.30
2022-10-29T04:47:26.411Z,7.40
2022-10-29T04:49:54.249Z,7.20
2022-10-29T04:52:23.471Z,7.57
2022-10-29T04:54:52.591Z,7.23
2022-10-29T04:57:20.411Z,7.17
2022-10-29T04:59:48.299Z,7.10
2022-10-29T05:02:16.140Z,7.43
2022-10-29T05:04:43.981Z,7.47
2022-10-29T05:07:11.933Z,7.50
2022-10-29T05:09:41.104Z,7.23
2022-10-29T05:12:09.633Z,7.83
2022-10-29T05:14:37.671Z,8.20
2022-10-29T05:19:38.511Z,7.80
2022-10-29T05:22:06.392Z,8.37
2022-10-29T05:24:34.300Z,8.63
2022-10-29T05:27:03.780Z,8.40
2022-10-29T05:29:31.591Z,8.77
2022-10-29T05:31:59.426Z,8.70
2022-10-29T05:34:27.724Z,9.53
2022-10-29T05:36:55.621Z,9.00
2022-10-29T05:39:23.440Z,9.80
2022-10-29T05:41:51.286Z,9.43
2022-10-29T05:44:20.508Z,10.37
2022-10-29T05:46:49.750Z,10.23
2022-10-29T05:49:17.738Z,9.57
2022-10-29T05:51:45.690Z,9.97
2022-10-29T05:54:13.544Z,9.73
2022-10-29T05:56:41.459Z,10.63
2022-10-29T05:59:09.389Z,11.10
2022-10-29T06:01:38.709Z,9.43
2022-10-29T06:04:06.799Z,9.10
2022-10-29T06:06:34.761Z,8.40
2022-10-29T06:09:02.761Z,9.47
2022-10-29T06:11:30.688Z,8.73
2022-10-29T06:13:58.613Z,8.73
2022-10-29T06:16:26.441Z,9.17
2022-10-29T06:18:56.594Z,8.63
2022-10-29T06:21:24.458Z,9.20
2022-10-29T06:23:54.185Z,8.73
2022-10-29T06:26:22.862Z,8.60
2022-10-29T06:28:50.747Z,9.13
2022-10-29T06:31:18.713Z,9.87
2022-10-29T06:33:46.878Z,9.13
2022-10-29T06:36:16.153Z,7.90
2022-10-29T06:38:44.080Z,8.83
2022-10-29T06:41:12.076Z,8.63
2022-10-29T06:43:39.917Z,7.40
2022-10-29T06:46:07.793Z,9.03
2022-10-29T06:48:35.756Z,8.27
2022-10-29T06:51:03.583Z,8.27
2022-10-29T06:53:33.347Z,8.10
2022-10-29T06:56:01.344Z,8.20
2022-10-29T06:58:29.166Z,7.93
2022-10-29T07:03:25.875Z,7.63
2022-10-29T07:05:57.243Z,8.63
2022-10-29T07:08:25.140Z,8.40
2022-10-29T07:10:55.511Z,9.03
2022-10-29T07:13:23.723Z,9.97
2022-10-29T07:15:51.680Z,10.07
2022-10-29T07:18:19.748Z,9.80
2022-10-29T07:20:47.741Z,9.17
2022-10-29T07:23:15.570Z,10.23
2022-10-29T07:25:43.676Z,9.80
2022-10-29T07:28:16.229Z,9.07
2022-10-29T07:30:45.038Z,8.70
2022-10-29T07:33:12.937Z,9.90
2022-10-29T07:35:40.762Z,9.47
2022-10-29T07:38:11.297Z,10.83
2022-10-29T07:40:40.357Z,11.33
2022-10-29T07:43:08.429Z,11.10
2022-10-29T07:45:37.863Z,12.40
2022-10-29T07:48:08.725Z,11.67
2022-10-29T07:50:37.157Z,14.87
2022-10-29T07:53:06.455Z,15.47
2022-10-29T07:55:34.548Z,16.83
2022-10-29T07:58:04.137Z,18.20
2022-10-29T08:00:33.659Z,18.10
2022-10-29T08:03:03.187Z,18.80
2022-10-29T08:05:31.973Z,18.30
2022-10-29T08:08:00.456Z,19.20
2022-10-29T08:10:29.583Z,19.40
2022-10-29T08:12:59.636Z,18.23
2022-10-29T08:15:28.842Z,19.67
2022-10-29T08:17:57.514Z,20.27
2022-10-29T08:20:28.939Z,20.93
2022-10-29T08:22:56.870Z,20.57
2022-10-29T08:25:26.100Z,21.30
2022-10-29T08:28:01.413Z,18.67
2022-10-29T08:30:29.718Z,18.53
2022-10-29T08:32:58.017Z,19.37
2022-10-29T08:35:27.914Z,18.17
2022-10-29T08:37:56.010Z,18.33
2022-10-29T08:40:30.685Z,19.47
2022-10-29T08:43:47.148Z,20.33
2022-10-29T08:46:22.382Z,20.70
2022-10-29T08:48:56.209Z,19.20
2022-10-29T08:51:30.239Z,19.10
2022-10-29T08:56:51.452Z,19.30
2022-10-29T08:59:21.837Z,18.23
2022-10-29T09:01:50.089Z,19.00
2022-10-29T09:04:26.691Z,16.97
2022-10-29T09:07:21.230Z,19.87
2022-10-29T09:09:55.495Z,17.07
2022-10-29T09:12:39.230Z,18.87
2022-10-29T09:15:31.697Z,21.27
2022-10-29T09:18:13.014Z,21.63
2022-10-29T09:20:52.112Z,19.83
2022-10-29T09:23:31.600Z,19.23
2022-10-29T09:26:04.122Z,20.87
2022-10-29T09:28:45.311Z,18.70
2022-10-29T09:31:25.606Z,19.67
2022-10-29T09:33:57.805Z,21.10
2022-10-29T09:36:30.839Z,20.13
2022-10-29T09:39:03.669Z,21.90
2022-10-29T09:41:34.437Z,22.93
2022-10-29T09:44:08.669Z,21.33
2022-10-29T09:46:46.260Z,21.87
2022-10-29T09:49:30.348Z,22.23
2022-10-29T09:52:02.197Z,20.77
2022-10-29T09:54:32.666Z,20.27
2022-10-29T09:57:03.323Z,22.60
2022-10-29T09:59:35.018Z,25.33
2022-10-29T10:02:03.086Z,24.50
2022-10-29T10:04:37.234Z,24.30
2022-10-29T10:07:08.104Z,21.70
2022-10-29T10:09:54.424Z,23.27
2022-10-29T10:12:25.189Z,23.43
2022-10-29T10:15:04.661Z,23.43
2022-10-29T10:17:56.034Z,20.15
2022-10-29T10:20:37.828Z,22.27
2022-10-29T10:23:22.378Z,22.27
2022-10-29T10:25:53.168Z,21.13
2022-10-29T10:28:23.246Z,20.58
2022-10-29T10:31:13.572Z,20.40
2022-10-29T10:33:53.058Z,19.93
2022-10-29T10:36:24.614Z,19.77
2022-10-29T10:38:55.207Z,20.08
2022-10-29T10:41:28.874Z,20.30
2022-10-29T10:44:00.551Z,20.65
2022-10-29T10:46:32.679Z,19.60
2022-10-29T10:49:04.373Z,20.08
2022-10-29T10:51:34.605Z,18.93
2022-10-29T10:54:08.386Z,18.73
2022-10-29T10:56:53.189Z,18.70
2022-10-29T10:59:21.952Z,16.63
2022-10-29T11:01:52.626Z,17.02
2022-10-29T11:04:25.327Z,16.63
2022-10-29T11:06:56.354Z,15.48
2022-10-29T11:09:28.300Z,15.43
2022-10-29T11:12:02.910Z,14.52
2022-10-29T11:14:36.805Z,15.55
2022-10-29T11:17:09.476Z,15.98
2022-10-29T11:19:43.457Z,15.18
2022-10-29T11:22:19.775Z,16.20
2022-10-29T11:24:54.301Z,15.32
2022-10-29T11:27:39.329Z,14.55
2022-10-29T11:30:11.553Z,12.50
2022-10-29T11:32:54.440Z,12.30
2022-10-29T11:35:38.848Z,13.23
2022-10-29T11:38:15.079Z,12.80
2022-10-29T11:40:46.715Z,11.95
2022-10-29T11:43:19.702Z,11.98
2022-10-29T11:45:59.150Z,11.07
2022-10-29T11:48:41.947Z,11.73
2022-10-29T11:51:22.812Z,12.35
2022-10-29T11:53:59.493Z,11.55
2022-10-29T11:56:50.147Z,12.48
2022-10-29T11:59:29.335Z,12.40
2022-10-29T12:02:10.311Z,13.70
2022-10-29T12:04:44.997Z,12.75
2022-10-29T12:07:24.494Z,12.80
2022-10-29T12:10:16.977Z,12.85
2022-10-29T12:12:49.923Z,11.52
2022-10-29T12:15:25.287Z,10.93
2022-10-29T12:18:01.971Z,11.52
2022-10-29T12:20:41.372Z,10.85
2022-10-29T12:23:25.581Z,11.35
2022-10-29T12:26:02.745Z,11.18
2022-10-29T12:28:43.039Z,16.75
2022-10-29T12:31:22.905Z,14.32
2022-10-29T12:33:59.583Z,12.63
2022-10-29T12:36:35.270Z,11.45
2022-10-29T12:39:03.892Z,11.60
2022-10-29T12:41:38.179Z,10.38
2022-10-29T12:44:15.266Z,11.80
2022-10-29T12:46:54.414Z,10.32
2022-10-29T12:49:37.826Z,10.88
2022-10-29T12:52:13.260Z,34.47
2022-10-29T12:54:43.235Z,12.45
2022-10-29T12:57:29.434Z,10.45
2022-10-29T12:59:58.653Z,10.27
2022-10-29T13:02:45.137Z,9.45
2022-10-29T13:05:38.953Z,8.05
2022-10-29T13:08:37.579Z,9.05
2022-10-29T13:11:23.614Z,9.45
2022-10-29T13:13:58.884Z,8.55
2022-10-29T13:16:33.018Z,8.15
2022-10-29T13:19:20.698Z,11.70
2022-10-29T13:22:45.350Z,9.15
2022-10-29T13:25:46.330Z,8.70
2022-10-29T13:28:49.559Z,8.45
2022-10-29T13:32:02.093Z,10.05
2022-10-29T13:34:57.737Z,9.43
2022-10-29T13:37:56.407Z,9.60
2022-10-29T13:40:57.581Z,9.52
2022-10-29T13:43:25.826Z,7.82
2022-10-29T13:46:04.052Z,8.73
2022-10-29T13:48:36.052Z,9.15
2022-10-29T13:51:09.460Z,9.73
2022-10-29T13:53:44.119Z,8.65
2022-10-29T13:56:18.820Z,8.95
2022-10-29T13:58:50.301Z,8.63
2022-10-29T14:01:21.030Z,9.23
2022-10-29T14:04:00.050Z,8.32
2022-10-29T14:06:34.341Z,9.65
2022-10-29T14:09:14.620Z,13.13
2022-10-29T14:11:48.251Z,12.68
2022-10-29T14:14:25.375Z,9.75
2022-10-29T14:17:11.229Z,11.35
2022-10-29T14:19:39.194Z,26.13
2022-10-29T14:22:30.123Z,19.08
2022-10-29T14:24:58.294Z,11.68
2022-10-29T14:27:26.126Z,10.45
2022-10-29T14:29:55.627Z,10.20
2022-10-29T14:32:23.559Z,11.75
2022-10-29T14:34:52.898Z,10.23
2022-10-29T14:37:28.914Z,9.23
2022-10-29T14:39:59.606Z,9.50
2022-10-29T14:42:32.317Z,9.98
2022-10-29T14:45:04.151Z,11.77
2022-10-29T14:47:34.525Z,10.80
2022-10-29T14:50:04.423Z,8.70
2022-10-29T14:52:39.752Z,9.30
2022-10-29T14:55:09.561Z,10.60
2022-10-29T14:57:43.200Z,8.88
2022-10-29T15:00:24.843Z,8.52
2022-10-29T15:02:54.753Z,8.73
2022-10-29T15:05:26.273Z,9.80
2022-10-29T15:08:07.100Z,9.57
2022-10-29T15:10:45.916Z,11.48
2022-10-29T15:13:24.263Z,10.45
2022-10-29T15:15:55.165Z,10.27
2022-10-29T15:18:25.692Z,10.07
2022-10-29T15:20:55.083Z,11.20
2022-10-29T15:23:28.144Z,10.73
2022-10-29T15:26:04.493Z,11.15
2022-10-29T15:28:38.704Z,9.48
2022-10-29T15:31:07.167Z,9.88
2022-10-29T15:33:38.257Z,10.30
2022-10-29T15:36:07.204Z,9.40
2022-10-29T15:39:14.648Z,9.35
2022-10-29T15:41:49.343Z,9.23
2022-10-29T15:44:38.080Z,9.15
2022-10-29T15:47:27.381Z,8.50
2022-10-29T15:49:55.391Z,8.85
2022-10-29T15:52:28.185Z,10.15
2022-10-29T15:54:56.165Z,9.57
2022-10-29T15:57:25.591Z,9.47
2022-10-29T15:59:57.436Z,9.32
2022-10-29T16:02:26.574Z,10.77
2022-10-29T16:04:54.485Z,10.15
2022-10-29T16:07:22.705Z,9.20
2022-10-29T16:09:53.394Z,9.90
2022-10-29T16:12:21.284Z,9.73
2022-10-29T16:14:50.746Z,10.53
2022-10-29T16:17:22.124Z,10.38
2022-10-29T16:19:49.999Z,11.07
2022-10-29T16:22:22.293Z,12.13
2022-10-29T16:24:50.460Z,12.40
2022-10-29T16:27:19.605Z,16.33
2022-10-29T16:29:49.728Z,13.10
2022-10-29T16:32:22.799Z,15.52
2022-10-29T16:34:52.217Z,13.60
2022-10-29T16:37:21.429Z,12.82
2022-10-29T16:39:49.342Z,18.20
2022-10-29T16:42:31.763Z,16.10
2022-10-29T16:44:59.840Z,13.60
2022-10-29T16:47:29.446Z,12.67
2022-10-29T16:49:57.420Z,12.47
2022-10-29T16:52:29.484Z,12.70
2022-10-29T16:54:58.085Z,14.70
2022-10-29T16:57:26.060Z,13.33
2022-10-29T16:59:53.902Z,11.93
2022-10-29T17:02:21.975Z,11.80
2022-10-29T17:04:51.407Z,12.73
2022-10-29T17:07:20.074Z,12.10
2022-10-29T17:09:48.116Z,11.70
2022-10-29T17:12:16.266Z,11.67
2022-10-29T17:14:44.209Z,11.93
2022-10-29T17:17:12.323Z,14.37
2022-10-29T17:19:40.320Z,15.03
2022-10-29T17:22:14.374Z,14.83
2022-10-29T17:24:42.479Z,13.53
2022-10-29T17:27:10.767Z,13.37
2022-10-29T17:29:39.066Z,16.90
2022-10-29T17:32:08.834Z,16.23
2022-10-29T17:34:37.075Z,15.13
2022-10-29T17:37:05.304Z,14.37
2022-10-29T17:39:34.690Z,14.63
2022-10-29T17:42:02.857Z,14.67
2022-10-29T17:44:32.195Z,16.93
2022-10-29T17:47:00.167Z,14.77
2022-10-29T17:49:28.053Z,14.77
2022-10-29T17:51:56.072Z,13.70
2022-10-29T17:54:24.060Z,14.37
2022-10-29T17:56:53.301Z,14.90
2022-10-29T17:59:21.424Z,16.43
2022-10-29T18:01:49.451Z,15.37
2022-10-29T18:04:17.429Z,15.83
2022-10-29T18:06:45.471Z,14.77
2022-10-29T18:09:17.083Z,15.23
2022-10-29T18:11:49.671Z,14.50
2022-10-29T18:14:19.012Z,16.77
2022-10-29T18:16:46.930Z,16.40
2022-10-29T18:19:15.139Z,13.53
2022-10-29T18:21:42.990Z,15.50
2022-10-29T18:24:11.148Z,14.80
2022-10-29T18:26:39.146Z,17.63
2022-10-29T18:29:09.319Z,15.97
2022-10-29T18:31:42.353Z,15.70
2022-10-29T18:34:10.845Z,16.17
2022-10-29T18:36:40.859Z,20.07
2022-10-29T18:39:09.115Z,16.70
2022-10-29T18:41:37.229Z,17.30
2022-10-29T18:44:05.441Z,16.90
2022-10-29T18:46:34.010Z,15.90
2022-10-29T18:49:03.355Z,18.50
2022-10-29T18:51:32.821Z,17.70
2022-10-29T18:54:01.596Z,19.80
2022-10-29T18:56:30.600Z,16.87
2022-10-29T18:58:59.455Z,18.63
2022-10-29T19:01:30.421Z,16.87
2022-10-29T19:04:00.656Z,16.07
2022-10-29T19:06:32.036Z,18.23
2022-10-29T19:09:01.137Z,16.43
2022-10-29T19:11:29.114Z,17.33
2022-10-29T19:13:59.013Z,16.27
2022-10-29T19:16:28.171Z,16.13
2022-10-29T19:18:57.247Z,18.13
2022-10-29T19:21:25.915Z,22.00
2022-10-29T19:23:56.790Z,20.07
2022-10-29T19:26:26.136Z,18.67
2022-10-29T19:28:54.741Z,17.53
2022-10-29T19:31:24.405Z,16.17
2022-10-29T19:33:53.738Z,16.23
2022-10-29T19:36:22.508Z,16.70
2022-10-29T19:38:50.590Z,16.10
2022-10-29T19:41:20.656Z,17.87
2022-10-29T19:43:48.907Z,16.50
2022-10-29T19:46:18.314Z,16.80
2022-10-29T19:48:50.873Z,16.63
2022-10-29T19:51:19.301Z,17.03
2022-10-29T19:53:48.703Z,16.43
2022-10-29T19:56:19.370Z,17.10
2022-10-29T19:58:47.622Z,15.93
2022-10-29T20:01:18.448Z,15.57
2022-10-29T20:03:47.522Z,16.93
2022-10-29T20:06:16.522Z,17.07
2022-10-29T20:08:44.471Z,15.43
2022-10-29T20:11:12.378Z,17.33
2022-10-29T20:13:41.584Z,17.73
2022-10-29T20:16:11.196Z,17.77
2022-10-29T20:18:39.278Z,16.50
2022-10-29T20:21:08.049Z,16.90
2022-10-29T20:23:36.536Z,16.47
2022-10-29T20:26:05.059Z,17.40
2022-10-29T20:28:33.150Z,17.33
2022-10-29T20:31:27.812Z,17.13
2022-10-29T20:33:59.178Z,16.70
2022-10-29T20:36:29.784Z,17.33
2022-10-29T20:38:58.060Z,16.70
2022-10-29T20:41:26.228Z,16.80
2022-10-29T20:43:55.563Z,17.60
2022-10-29T20:46:25.672Z,17.03
2022-10-29T20:48:53.550Z,17.73
2022-10-29T20:51:22.955Z,18.63
2022-10-29T20:53:51.318Z,17.20
2022-10-29T20:56:19.533Z,19.10
2022-10-29T20:58:48.630Z,18.30
2022-10-29T21:01:18.649Z,19.40
2022-10-29T21:03:50.272Z,20.40
2022-10-29T21:06:18.661Z,18.03
2022-10-29T21:08:47.137Z,18.07
2022-10-29T21:11:16.615Z,19.43
2022-10-29T21:13:44.690Z,19.80
2022-10-29T21:16:18.027Z,17.67
2022-10-29T21:18:49.768Z,18.83
2022-10-29T21:21:19.001Z,18.37
2022-10-29T21:23:47.133Z,16.57
2022-10-29T21:26:17.057Z,18.73
2022-10-29T21:28:45.709Z,17.47
2022-10-29T21:31:13.786Z,18.20
2022-10-29T21:33:43.233Z,17.97
2022-10-29T21:36:14.236Z,19.40
2022-10-29T21:38:42.403Z,18.10
2022-10-29T21:41:10.407Z,18.73
2022-10-29T21:43:39.106Z,18.47
2022-10-29T21:46:07.162Z,19.80
2022-10-29T21:48:35.322Z,19.47
2022-10-29T21:51:05.507Z,18.67
2022-10-29T21:53:34.882Z,17.77
2022-10-29T21:56:05.025Z,18.80
2022-10-29T21:58:33.282Z,17.87
2022-10-29T22:01:06.111Z,17.07
2022-10-29T22:03:34.995Z,18.03
2022-10-29T22:06:04.112Z,19.03
2022-10-29T22:08:31.986Z,19.13
2022-10-29T22:11:01.372Z,20.23
2022-10-29T22:13:29.798Z,17.67
2022-10-29T22:15:58.072Z,17.30
2022-10-29T22:18:26.396Z,17.23
2022-10-29T22:21:07.375Z,17.77
2022-10-29T22:23:35.816Z,18.17
2022-10-29T22:26:05.159Z,17.30
2022-10-29T22:28:33.258Z,16.80
2022-10-29T22:31:02.538Z,17.73
2022-10-29T22:33:30.815Z,17.57
2022-10-29T22:36:06.559Z,18.30
2022-10-29T22:38:34.432Z,17.40
2022-10-29T22:41:07.474Z,18.77
2022-10-29T22:43:35.923Z,16.63
2022-10-29T22:46:05.300Z,16.70
2022-10-29T22:48:33.495Z,16.10
2022-10-29T22:51:03.429Z,17.30
2022-10-29T22:53:31.330Z,16.73
2022-10-29T22:55:59.779Z,16.50
2022-10-29T22:58:29.595Z,16.97
2022-10-29T23:01:05.689Z,17.00
2022-10-29T23:03:34.321Z,17.63
2022-10-29T23:06:03.457Z,16.37
2022-10-29T23:08:32.489Z,16.80
2022-10-29T23:11:05.506Z,16.17
2022-10-29T23:13:35.084Z,16.30
2022-10-29T23:16:02.967Z,16.93
2022-10-29T23:18:30.839Z,15.50
2022-10-29T23:21:00.474Z,16.40
2022-10-29T23:23:28.750Z,14.77
2022-10-29T23:26:00.925Z,16.33
2022-10-29T23:28:29.480Z,16.10
2022-10-29T23:31:00.410Z,15.60
2022-10-29T23:33:29.269Z,14.93
2022-10-29T23:35:57.536Z,16.30
2022-10-29T23:38:25.448Z,14.60
2022-10-29T23:40:53.429Z,15.03
2022-10-29T23:43:21.288Z,14.40
2022-10-29T23:45:49.208Z,14.20
2022-10-29T23:48:18.905Z,15.00
2022-10-29T23:50:47.159Z,14.07
2022-10-29T23:53:15.530Z,13.13
2022-10-29T23:55:43.852Z,14.17
2022-10-29T23:58:12.364Z,13.80
